Fort Myer, Virginia
Current Conditions -  °F | °C
As of 8:52 AM on Saturday 25 Oct 2014 (Local Time) from KDCA Reporting Station
Clear Clear  
Wind Chill: 54°   Ceiling: Unl
Heat Index: 54°   Visibility: 10mi
Dew Point: 44°   Wind: 5mph
Humidity: 69%   Direction: 180°S
Pressure: 29.97"   Gusts: NA
Location:  38.88°N, 77.08°W
Report Text: KDCA 251252Z 18004KT 10SM CLR 12/07 A2997 RMK AO2 SLP150 T01220067 $
Loading
Personal Weather Stations






























Interactive Weather Map
Tropical Storm Tracking
New forecast layout! Learn more

10-Day Weather Forecast

Advertisements
Track Severe Weather on mobile